createdAt,value
2022-10-22T00:03:54.828Z,9.72
2022-10-22T00:08:56.710Z,9.71
2022-10-22T00:13:58.513Z,9.70
2022-10-22T00:19:00.485Z,9.69
2022-10-22T00:24:02.423Z,9.65
2022-10-22T00:29:04.143Z,9.62
2022-10-22T00:34:05.887Z,9.58
2022-10-22T00:39:07.607Z,9.56
2022-10-22T00:44:47.774Z,9.56
2022-10-22T00:49:50.001Z,9.55
2022-10-22T00:54:52.430Z,9.52
2022-10-22T00:59:55.886Z,9.49
2022-10-22T01:04:57.674Z,9.44
2022-10-22T01:10:18.225Z,9.38
2022-10-22T01:15:34.928Z,9.30
2022-10-22T01:21:04.413Z,9.20
2022-10-22T01:26:26.009Z,9.09
2022-10-22T01:31:32.637Z,9.01
2022-10-22T01:36:37.588Z,8.97
2022-10-22T01:41:40.482Z,8.96
2022-10-22T01:46:42.418Z,8.98
2022-10-22T01:52:12.797Z,9.00
2022-10-22T01:57:28.867Z,9.03
2022-10-22T02:02:34.204Z,9.05
2022-10-22T02:07:43.904Z,9.08
2022-10-22T02:12:50.379Z,9.09
2022-10-22T02:17:55.364Z,9.07
2022-10-22T02:22:58.949Z,9.05
2022-10-22T02:28:13.116Z,9.01
2022-10-22T02:33:22.350Z,8.99
2022-10-22T02:38:26.851Z,8.98
2022-10-22T02:43:29.571Z,8.96
2022-10-22T02:48:31.389Z,8.96
2022-10-22T02:53:33.375Z,8.97
2022-10-22T02:58:35.269Z,9.01
2022-10-22T03:03:37.069Z,9.08
2022-10-22T03:08:40.931Z,9.15
2022-10-22T03:13:42.835Z,9.21
2022-10-22T03:18:44.603Z,9.25
2022-10-22T03:23:47.777Z,9.25
2022-10-22T03:28:49.974Z,9.23
2022-10-22T03:33:51.802Z,9.21
2022-10-22T03:38:54.276Z,9.17
2022-10-22T03:43:57.482Z,9.14
2022-10-22T03:48:59.218Z,9.11
2022-10-22T03:54:00.995Z,9.11
2022-10-22T03:59:03.391Z,9.12
2022-10-22T04:04:05.237Z,9.10
2022-10-22T04:09:07.270Z,9.09
2022-10-22T04:14:09.097Z,9.07
2022-10-22T04:19:10.861Z,9.02
2022-10-22T04:24:12.613Z,8.96
2022-10-22T04:29:16.154Z,8.92
2022-10-22T04:34:18.285Z,8.89
2022-10-22T04:39:20.042Z,8.89
2022-10-22T04:44:22.200Z,8.88
2022-10-22T04:49:24.312Z,8.83
2022-10-22T04:54:29.051Z,8.75
2022-10-22T04:59:34.021Z,8.70
2022-10-22T05:04:35.870Z,8.69
2022-10-22T05:09:37.756Z,8.68
2022-10-22T05:14:43.909Z,8.71
2022-10-22T05:19:46.648Z,8.74
2022-10-22T05:24:49.166Z,8.75
2022-10-22T05:29:51.074Z,8.76
2022-10-22T05:34:52.883Z,8.74
2022-10-22T05:40:01.914Z,8.74
2022-10-22T05:45:14.526Z,8.78
2022-10-22T05:50:16.393Z,8.79
2022-10-22T05:55:18.161Z,8.79
2022-10-22T06:00:20.121Z,8.83
2022-10-22T06:05:21.953Z,8.88
2022-10-22T06:10:23.953Z,8.98
2022-10-22T06:15:25.752Z,9.13
2022-10-22T06:20:27.637Z,9.31
2022-10-22T06:25:29.456Z,9.48
2022-10-22T06:30:31.300Z,9.63
2022-10-22T06:35:33.418Z,9.75
2022-10-22T06:40:35.178Z,9.88
2022-10-22T06:45:37.031Z,10.02
2022-10-22T06:50:38.834Z,10.18
2022-10-22T06:55:40.596Z,10.34
2022-10-22T07:00:42.364Z,10.54
2022-10-22T07:05:44.129Z,10.72
2022-10-22T07:10:45.847Z,10.88
2022-10-22T07:15:55.207Z,10.98
2022-10-22T07:20:57.380Z,11.11
2022-10-22T07:25:59.570Z,11.22
2022-10-22T07:31:01.399Z,11.29
2022-10-22T07:36:06.039Z,11.31
2022-10-22T07:41:07.993Z,11.37
2022-10-22T07:46:09.911Z,11.46
2022-10-22T07:51:11.826Z,11.55
2022-10-22T07:56:14.141Z,11.66
2022-10-22T08:01:16.040Z,11.78
2022-10-22T08:06:17.931Z,11.93
2022-10-22T08:11:19.795Z,12.04
2022-10-22T08:16:21.595Z,12.15
2022-10-22T08:21:23.448Z,12.27
2022-10-22T08:26:25.213Z,12.34
2022-10-22T08:31:27.011Z,12.41
2022-10-22T08:36:31.232Z,12.45
2022-10-22T08:41:40.438Z,12.50
2022-10-22T08:47:13.250Z,12.59
2022-10-22T08:52:18.736Z,12.68
2022-10-22T08:57:23.662Z,12.66
2022-10-22T09:02:28.173Z,12.66
2022-10-22T09:07:29.970Z,12.72
2022-10-22T09:12:31.768Z,12.77
2022-10-22T09:17:50.182Z,12.83
2022-10-22T09:22:57.538Z,12.83
2022-10-22T09:27:59.397Z,12.81
2022-10-22T09:33:07.273Z,12.80
2022-10-22T09:38:09.094Z,12.84
2022-10-22T09:43:14.917Z,12.92
2022-10-22T09:48:41.797Z,12.98
2022-10-22T09:53:47.374Z,13.00
2022-10-22T09:58:51.314Z,13.06
2022-10-22T10:03:53.548Z,13.11
2022-10-22T10:08:55.400Z,13.11
2022-10-22T10:14:21.581Z,13.14
2022-10-22T10:19:44.762Z,13.18
2022-10-22T10:24:56.602Z,13.25
2022-10-22T10:30:21.468Z,13.32
2022-10-22T10:35:55.101Z,13.36
2022-10-22T10:41:07.564Z,13.36
2022-10-22T10:46:29.520Z,13.33
2022-10-22T10:51:54.585Z,13.27
2022-10-22T10:57:10.130Z,13.24
2022-10-22T11:02:27.317Z,13.21
2022-10-22T11:07:37.017Z,13.16
2022-10-22T11:12:48.797Z,13.14
2022-10-22T11:17:53.051Z,13.14
2022-10-22T11:23:21.005Z,13.16
2022-10-22T11:28:40.325Z,13.17
2022-10-22T11:33:52.700Z,13.25
2022-10-22T11:38:59.007Z,13.26
2022-10-22T11:44:22.751Z,13.15
2022-10-22T11:49:41.990Z,13.07
2022-10-22T11:54:44.881Z,13.02
2022-10-22T11:59:46.596Z,12.95
2022-10-22T12:04:48.363Z,12.88
2022-10-22T12:14:59.674Z,12.50
2022-10-22T12:20:11.606Z,12.35
2022-10-22T12:25:22.276Z,12.22
2022-10-22T12:30:27.253Z,12.16
2022-10-22T12:35:33.076Z,12.14
2022-10-22T12:40:35.914Z,12.13
2022-10-22T12:45:39.208Z,12.16
2022-10-22T12:50:43.799Z,12.18
2022-10-22T12:55:49.624Z,12.18
2022-10-22T13:00:58.521Z,12.15
2022-10-22T13:06:30.143Z,12.09
2022-10-22T13:11:48.279Z,12.02
2022-10-22T13:17:09.022Z,11.96
2022-10-22T13:22:29.127Z,11.87
2022-10-22T13:27:31.242Z,11.83
2022-10-22T13:32:34.061Z,11.80
2022-10-22T13:37:38.146Z,11.75
2022-10-22T13:42:40.403Z,11.69
2022-10-22T13:47:46.638Z,11.62
2022-10-22T13:52:53.365Z,11.53
2022-10-22T13:57:57.581Z,11.43
2022-10-22T14:03:00.255Z,11.37
2022-10-22T14:08:02.415Z,11.31
2022-10-22T14:13:07.249Z,11.26
2022-10-22T14:18:15.484Z,11.19
2022-10-22T14:23:20.782Z,11.15
2022-10-22T14:28:22.664Z,11.07
2022-10-22T14:33:31.501Z,11.01
2022-10-22T14:38:34.124Z,10.95
2022-10-22T14:43:35.981Z,10.90
2022-10-22T14:48:37.803Z,10.87
2022-10-22T14:53:39.618Z,10.84
2022-10-22T14:58:41.613Z,10.78
2022-10-22T15:03:43.729Z,10.73
2022-10-22T15:08:45.871Z,10.69
2022-10-22T15:13:47.936Z,10.65
2022-10-22T15:18:49.720Z,10.67
2022-10-22T15:23:51.525Z,10.64
2022-10-22T15:28:53.423Z,10.59
2022-10-22T15:33:59.465Z,10.57
2022-10-22T15:39:08.942Z,10.54
2022-10-22T15:44:19.728Z,10.54
2022-10-22T15:49:23.579Z,10.55
2022-10-22T15:54:28.759Z,10.53
2022-10-22T15:59:30.885Z,10.56
2022-10-22T16:04:33.146Z,10.56
2022-10-22T16:09:34.914Z,10.55
2022-10-22T16:14:37.065Z,10.52
2022-10-22T16:19:38.993Z,10.49
2022-10-22T16:24:41.124Z,10.45
2022-10-22T16:29:43.072Z,10.42
2022-10-22T16:34:45.020Z,10.40
2022-10-22T16:39:46.805Z,10.38
2022-10-22T16:44:48.706Z,10.36
2022-10-22T16:49:50.516Z,10.36
2022-10-22T16:54:52.362Z,10.35
2022-10-22T16:59:54.510Z,10.34
2022-10-22T17:04:56.332Z,10.34
2022-10-22T17:09:58.131Z,10.33
2022-10-22T17:15:00.095Z,10.33
2022-10-22T17:20:02.035Z,10.33
2022-10-22T17:25:22.049Z,10.30
2022-10-22T17:30:27.282Z,10.28
2022-10-22T17:35:29.225Z,10.26
2022-10-22T17:40:31.069Z,10.24
2022-10-22T17:45:33.004Z,10.25
2022-10-22T17:50:34.846Z,10.27
2022-10-22T17:55:36.753Z,10.30
2022-10-22T18:00:38.639Z,10.31
2022-10-22T18:05:40.506Z,10.32
2022-10-22T18:10:43.017Z,10.33
2022-10-22T18:15:44.818Z,10.35
2022-10-22T18:20:53.251Z,10.37
2022-10-22T18:25:55.101Z,10.39
2022-10-22T18:30:56.908Z,10.38
2022-10-22T18:36:04.483Z,10.36
2022-10-22T18:41:08.524Z,10.35
2022-10-22T18:46:10.308Z,10.32
2022-10-22T18:51:12.127Z,10.28
2022-10-22T18:56:13.901Z,10.27
2022-10-22T19:01:19.917Z,10.29
2022-10-22T19:06:32.000Z,10.32
2022-10-22T19:11:35.911Z,10.36
2022-10-22T19:16:38.708Z,10.41
2022-10-22T19:21:40.502Z,10.43
2022-10-22T19:26:42.635Z,10.39
2022-10-22T19:31:44.538Z,10.37
2022-10-22T19:36:46.401Z,10.39
2022-10-22T19:41:48.739Z,10.41
2022-10-22T19:46:50.493Z,10.45
2022-10-22T19:51:52.323Z,10.51
2022-10-22T19:56:54.132Z,10.55
2022-10-22T20:01:56.000Z,10.60
2022-10-22T20:06:58.080Z,10.64
2022-10-22T20:12:00.432Z,10.68
2022-10-22T20:17:02.255Z,10.71
2022-10-22T20:22:04.068Z,10.72
2022-10-22T20:27:05.845Z,10.73
2022-10-22T20:32:08.888Z,10.74
2022-10-22T20:37:10.981Z,10.74
2022-10-22T20:42:12.824Z,10.75
2022-10-22T20:47:14.612Z,10.78
2022-10-22T20:52:16.514Z,10.82
2022-10-22T20:57:18.290Z,10.83
2022-10-22T21:02:20.587Z,10.84
2022-10-22T21:07:22.511Z,10.86
2022-10-22T21:12:26.854Z,10.89
2022-10-22T21:17:28.802Z,10.92
2022-10-22T21:22:30.604Z,10.94
2022-10-22T21:27:32.390Z,10.96
2022-10-22T21:32:34.165Z,10.98
2022-10-22T21:37:35.997Z,11.00
2022-10-22T21:42:37.734Z,10.98
2022-10-22T21:47:46.261Z,10.91
2022-10-22T21:52:47.968Z,10.80
2022-10-22T21:57:49.751Z,10.65
2022-10-22T22:02:51.473Z,10.51
2022-10-22T22:07:53.220Z,10.38
2022-10-22T22:12:54.984Z,10.27
2022-10-22T22:17:56.803Z,10.20
2022-10-22T22:22:58.668Z,10.19
2022-10-22T22:28:00.423Z,10.21
2022-10-22T22:33:02.148Z,10.26
2022-10-22T22:38:04.066Z,10.33
2022-10-22T22:43:05.778Z,10.40
2022-10-22T22:48:07.946Z,10.48
2022-10-22T22:53:09.652Z,10.55
2022-10-22T22:58:11.416Z,10.59
2022-10-22T23:03:13.131Z,10.60
2022-10-22T23:08:14.891Z,10.58
2022-10-22T23:13:19.391Z,10.54
2022-10-22T23:18:21.121Z,10.53
2022-10-22T23:23:22.854Z,10.54
2022-10-22T23:28:24.703Z,10.58
2022-10-22T23:33:26.706Z,10.62
2022-10-22T23:38:29.031Z,10.65
2022-10-22T23:43:31.930Z,10.66
2022-10-22T23:48:33.906Z,10.65
2022-10-22T23:53:35.765Z,10.64
2022-10-22T23:58:38.168Z,10.60
